sensor_id;sensor_type;location;lat;lon;timestamp;temperature;humidity
12893;DHT22;6514;48.606;9.222;2024-01-11T00:01:10;-5.30;99.90
12893;DHT22;6514;48.606;9.222;2024-01-11T00:03:36;-5.30;99.90
12893;DHT22;6514;48.606;9.222;2024-01-11T00:06:03;-5.40;99.90
12893;DHT22;6514;48.606;9.222;2024-01-11T00:08:30;-5.40;99.90
12893;DHT22;6514;48.606;9.222;2024-01-11T00:10:57;-5.40;99.90
12893;DHT22;6514;48.606;9.222;2024-01-11T00:13:24;-5.40;99.90
12893;DHT22;6514;48.606;9.222;2024-01-11T00:15:51;-5.40;99.90
12893;DHT22;6514;48.606;9.222;2024-01-11T00:18:20;-5.40;99.90
12893;DHT22;6514;48.606;9.222;2024-01-11T00:20:47;-5.40;99.90
12893;DHT22;6514;48.606;9.222;2024-01-11T00:23:14;-5.30;99.90
12893;DHT22;6514;48.606;9.222;2024-01-11T00:25:41;-5.30;99.90
12893;DHT22;6514;48.606;9.222;2024-01-11T00:28:07;-5.40;99.90
12893;DHT22;6514;48.606;9.222;2024-01-11T00:30:34;-5.40;99.90
12893;DHT22;6514;48.606;9.222;2024-01-11T00:33:01;-5.40;99.90
12893;DHT22;6514;48.606;9.222;2024-01-11T00:35:30;-5.40;99.90
12893;DHT22;6514;48.606;9.222;2024-01-11T00:37:57;-5.40;99.90
12893;DHT22;6514;48.606;9.222;2024-01-11T00:40:24;-5.50;99.90
12893;DHT22;6514;48.606;9.222;2024-01-11T00:42:51;-5.50;99.90
12893;DHT22;6514;48.606;9.222;2024-01-11T00:45:18;-5.50;99.90
12893;DHT22;6514;48.606;9.222;2024-01-11T00:47:45;-5.50;99.90
12893;DHT22;6514;48.606;9.222;2024-01-11T00:50:12;-5.50;99.90
12893;DHT22;6514;48.606;9.222;2024-01-11T00:52:41;-5.60;99.90
12893;DHT22;6514;48.606;9.222;2024-01-11T00:55:08;-5.60;99.90
12893;DHT22;6514;48.606;9.222;2024-01-11T00:57:35;-5.60;99.90
12893;DHT22;6514;48.606;9.222;2024-01-11T01:00:02;-5.60;99.90
12893;DHT22;6514;48.606;9.222;2024-01-11T01:02:30;-5.60;99.90
12893;DHT22;6514;48.606;9.222;2024-01-11T01:04:57;-5.60;99.90
12893;DHT22;6514;48.606;9.222;2024-01-11T01:07:25;-5.70;99.90
12893;DHT22;6514;48.606;9.222;2024-01-11T01:09:53;-5.60;99.90
12893;DHT22;6514;48.606;9.222;2024-01-11T01:12:21;-5.50;99.90
12893;DHT22;6514;48.606;9.222;2024-01-11T01:14:51;-5.50;99.90
12893;DHT22;6514;48.606;9.222;2024-01-11T01:17:19;-5.50;99.90
12893;DHT22;6514;48.606;9.222;2024-01-11T01:19:47;-5.50;99.90
12893;DHT22;6514;48.606;9.222;2024-01-11T01:22:15;-5.50;99.90
12893;DHT22;6514;48.606;9.222;2024-01-11T01:24:41;-5.50;99.90
12893;DHT22;6514;48.606;9.222;2024-01-11T01:27:10;-5.50;99.90
12893;DHT22;6514;48.606;9.222;2024-01-11T01:29:37;-5.50;99.90
12893;DHT22;6514;48.606;9.222;2024-01-11T01:32:05;-5.50;99.90
12893;DHT22;6514;48.606;9.222;2024-01-11T01:34:32;-5.60;99.90
12893;DHT22;6514;48.606;9.222;2024-01-11T01:36:59;-5.60;99.90
12893;DHT22;6514;48.606;9.222;2024-01-11T01:39:26;-5.60;99.90
12893;DHT22;6514;48.606;9.222;2024-01-11T01:41:52;-5.60;99.90
12893;DHT22;6514;48.606;9.222;2024-01-11T01:44:22;-5.70;99.90
12893;DHT22;6514;48.606;9.222;2024-01-11T01:46:51;-5.70;99.90
12893;DHT22;6514;48.606;9.222;2024-01-11T01:49:20;-5.70;99.90
12893;DHT22;6514;48.606;9.222;2024-01-11T01:51:48;-5.70;99.90
12893;DHT22;6514;48.606;9.222;2024-01-11T01:54:17;-5.70;99.90
12893;DHT22;6514;48.606;9.222;2024-01-11T01:56:45;-5.70;99.90
12893;DHT22;6514;48.606;9.222;2024-01-11T01:59:14;-5.70;99.90
12893;DHT22;6514;48.606;9.222;2024-01-11T02:01:45;-5.70;99.90
12893;DHT22;6514;48.606;9.222;2024-01-11T02:04:13;-5.60;99.90
12893;DHT22;6514;48.606;9.222;2024-01-11T02:06:41;-5.60;99.90
12893;DHT22;6514;48.606;9.222;2024-01-11T02:09:11;-5.60;99.90
12893;DHT22;6514;48.606;9.222;2024-01-11T02:11:39;-5.60;99.90
12893;DHT22;6514;48.606;9.222;2024-01-11T02:14:08;-5.60;99.90
12893;DHT22;6514;48.606;9.222;2024-01-11T02:16:36;-5.70;99.90
12893;DHT22;6514;48.606;9.222;2024-01-11T02:19:04;-5.60;99.90
12893;DHT22;6514;48.606;9.222;2024-01-11T02:21:33;-5.50;99.90
12893;DHT22;6514;48.606;9.222;2024-01-11T02:24:06;-5.40;99.90
12893;DHT22;6514;48.606;9.222;2024-01-11T02:26:34;-5.40;99.90
12893;DHT22;6514;48.606;9.222;2024-01-11T02:29:00;-5.30;99.90
12893;DHT22;6514;48.606;9.222;2024-01-11T02:31:28;-5.30;99.90
12893;DHT22;6514;48.606;9.222;2024-01-11T02:33:55;-5.30;99.90
12893;DHT22;6514;48.606;9.222;2024-01-11T02:36:22;-5.20;99.90
12893;DHT22;6514;48.606;9.222;2024-01-11T02:38:50;-5.20;99.90
12893;DHT22;6514;48.606;9.222;2024-01-11T02:41:20;-5.10;99.90
12893;DHT22;6514;48.606;9.222;2024-01-11T02:43:48;-5.10;99.90
12893;DHT22;6514;48.606;9.222;2024-01-11T02:46:15;-5.10;99.90
12893;DHT22;6514;48.606;9.222;2024-01-11T02:48:42;-5.10;99.90
12893;DHT22;6514;48.606;9.222;2024-01-11T02:51:09;-5.10;99.90
12893;DHT22;6514;48.606;9.222;2024-01-11T02:53:35;-5.10;99.90
12893;DHT22;6514;48.606;9.222;2024-01-11T02:56:03;-5.20;99.90
12893;DHT22;6514;48.606;9.222;2024-01-11T02:58:31;-5.20;99.90
12893;DHT22;6514;48.606;9.222;2024-01-11T03:00:59;-5.20;99.90
12893;DHT22;6514;48.606;9.222;2024-01-11T03:03:26;-5.20;99.90
12893;DHT22;6514;48.606;9.222;2024-01-11T03:05:53;-5.10;99.90
12893;DHT22;6514;48.606;9.222;2024-01-11T03:08:20;-5.20;99.90
12893;DHT22;6514;48.606;9.222;2024-01-11T03:10:47;-5.10;99.90
12893;DHT22;6514;48.606;9.222;2024-01-11T03:13:14;-5.20;99.90
12893;DHT22;6514;48.606;9.222;2024-01-11T03:15:43;-5.20;99.90
12893;DHT22;6514;48.606;9.222;2024-01-11T03:18:10;-5.20;99.90
12893;DHT22;6514;48.606;9.222;2024-01-11T03:20:36;-5.30;99.90
12893;DHT22;6514;48.606;9.222;2024-01-11T03:23:03;-5.30;99.90
12893;DHT22;6514;48.606;9.222;2024-01-11T03:25:31;-5.30;99.90
12893;DHT22;6514;48.606;9.222;2024-01-11T03:27:58;-5.30;99.90
12893;DHT22;6514;48.606;9.222;2024-01-11T03:30:25;-5.30;99.90
12893;DHT22;6514;48.606;9.222;2024-01-11T03:32:53;-5.30;99.90
12893;DHT22;6514;48.606;9.222;2024-01-11T03:35:21;-5.30;99.90
12893;DHT22;6514;48.606;9.222;2024-01-11T03:37:47;-5.40;99.90
12893;DHT22;6514;48.606;9.222;2024-01-11T03:40:14;-5.50;99.90
12893;DHT22;6514;48.606;9.222;2024-01-11T03:42:42;-5.40;99.90
12893;DHT22;6514;48.606;9.222;2024-01-11T03:45:09;-5.40;99.90
12893;DHT22;6514;48.606;9.222;2024-01-11T03:47:36;-5.40;99.90
12893;DHT22;6514;48.606;9.222;2024-01-11T03:50:06;-5.50;99.90
12893;DHT22;6514;48.606;9.222;2024-01-11T03:52:33;-5.60;99.90
12893;DHT22;6514;48.606;9.222;2024-01-11T03:55:00;-5.70;99.90
12893;DHT22;6514;48.606;9.222;2024-01-11T03:57:26;-5.80;99.90
12893;DHT22;6514;48.606;9.222;2024-01-11T03:59:53;-5.90;99.90
12893;DHT22;6514;48.606;9.222;2024-01-11T04:02:20;-6.00;99.90
12893;DHT22;6514;48.606;9.222;2024-01-11T04:04:47;-6.10;99.90
12893;DHT22;6514;48.606;9.222;2024-01-11T04:07:16;-6.20;99.90
12893;DHT22;6514;48.606;9.222;2024-01-11T04:09:43;-5.60;99.90
12893;DHT22;6514;48.606;9.222;2024-01-11T04:12:10;-6.30;99.90
12893;DHT22;6514;48.606;9.222;2024-01-11T04:14:38;-6.30;99.90
12893;DHT22;6514;48.606;9.222;2024-01-11T04:17:06;-6.30;99.90
12893;DHT22;6514;48.606;9.222;2024-01-11T04:19:33;-6.40;99.90
12893;DHT22;6514;48.606;9.222;2024-01-11T04:22:00;-6.40;99.90
12893;DHT22;6514;48.606;9.222;2024-01-11T04:24:29;-6.50;99.90
12893;DHT22;6514;48.606;9.222;2024-01-11T04:26:56;-6.40;99.90
12893;DHT22;6514;48.606;9.222;2024-01-11T04:29:23;-6.40;99.90
12893;DHT22;6514;48.606;9.222;2024-01-11T04:31:50;-6.30;99.90
12893;DHT22;6514;48.606;9.222;2024-01-11T04:34:17;-6.30;99.90
12893;DHT22;6514;48.606;9.222;2024-01-11T04:36:44;-6.30;99.90
12893;DHT22;6514;48.606;9.222;2024-01-11T04:39:11;-4.90;99.90
12893;DHT22;6514;48.606;9.222;2024-01-11T04:41:40;-6.10;99.90
12893;DHT22;6514;48.606;9.222;2024-01-11T04:44:07;-6.10;99.90
12893;DHT22;6514;48.606;9.222;2024-01-11T04:46:34;-6.10;99.90
12893;DHT22;6514;48.606;9.222;2024-01-11T04:49:01;-6.10;99.90
12893;DHT22;6514;48.606;9.222;2024-01-11T04:51:28;-6.00;99.90
12893;DHT22;6514;48.606;9.222;2024-01-11T04:53:55;-5.90;99.90
12893;DHT22;6514;48.606;9.222;2024-01-11T04:56:22;-5.90;99.90
12893;DHT22;6514;48.606;9.222;2024-01-11T04:58:51;-6.00;99.90
12893;DHT22;6514;48.606;9.222;2024-01-11T05:01:18;-6.00;99.90
12893;DHT22;6514;48.606;9.222;2024-01-11T05:03:46;-6.10;99.90
12893;DHT22;6514;48.606;9.222;2024-01-11T05:06:16;-6.20;99.90
12893;DHT22;6514;48.606;9.222;2024-01-11T05:08:44;-6.30;99.90
12893;DHT22;6514;48.606;9.222;2024-01-11T05:11:15;-6.40;99.90
12893;DHT22;6514;48.606;9.222;2024-01-11T05:13:44;-6.40;99.90
12893;DHT22;6514;48.606;9.222;2024-01-11T05:16:29;-6.50;99.90
12893;DHT22;6514;48.606;9.222;2024-01-11T05:18:57;-6.50;99.90
12893;DHT22;6514;48.606;9.222;2024-01-11T05:21:24;-6.60;99.90
12893;DHT22;6514;48.606;9.222;2024-01-11T05:23:51;-6.60;99.90
12893;DHT22;6514;48.606;9.222;2024-01-11T05:26:19;-6.70;99.90
12893;DHT22;6514;48.606;9.222;2024-01-11T05:28:46;-6.70;99.90
12893;DHT22;6514;48.606;9.222;2024-01-11T05:31:15;-6.70;99.90
12893;DHT22;6514;48.606;9.222;2024-01-11T05:33:43;-6.70;99.90
12893;DHT22;6514;48.606;9.222;2024-01-11T05:36:11;-6.70;99.90
12893;DHT22;6514;48.606;9.222;2024-01-11T05:38:39;-6.80;99.90
12893;DHT22;6514;48.606;9.222;2024-01-11T05:41:06;-6.80;99.90
12893;DHT22;6514;48.606;9.222;2024-01-11T05:43:33;-6.80;99.90
12893;DHT22;6514;48.606;9.222;2024-01-11T05:46:00;-6.80;99.90
12893;DHT22;6514;48.606;9.222;2024-01-11T05:48:27;-6.90;99.90
12893;DHT22;6514;48.606;9.222;2024-01-11T05:50:56;-6.90;99.90
12893;DHT22;6514;48.606;9.222;2024-01-11T05:53:23;-6.80;99.90
12893;DHT22;6514;48.606;9.222;2024-01-11T05:55:50;-6.80;99.90
12893;DHT22;6514;48.606;9.222;2024-01-11T05:58:17;-6.80;99.90
12893;DHT22;6514;48.606;9.222;2024-01-11T06:00:44;-6.80;99.90
12893;DHT22;6514;48.606;9.222;2024-01-11T06:03:12;-6.80;99.90
12893;DHT22;6514;48.606;9.222;2024-01-11T06:05:39;-6.80;99.90
12893;DHT22;6514;48.606;9.222;2024-01-11T06:08:07;-6.70;99.90
12893;DHT22;6514;48.606;9.222;2024-01-11T06:10:34;-6.70;99.90
12893;DHT22;6514;48.606;9.222;2024-01-11T06:13:01;-6.60;99.90
12893;DHT22;6514;48.606;9.222;2024-01-11T06:15:28;-6.40;99.90
12893;DHT22;6514;48.606;9.222;2024-01-11T06:17:55;-6.40;99.90
12893;DHT22;6514;48.606;9.222;2024-01-11T06:20:22;-6.20;99.90
12893;DHT22;6514;48.606;9.222;2024-01-11T06:22:49;-6.20;99.90
12893;DHT22;6514;48.606;9.222;2024-01-11T06:25:17;-6.10;99.90
12893;DHT22;6514;48.606;9.222;2024-01-11T06:27:44;-6.00;99.90
12893;DHT22;6514;48.606;9.222;2024-01-11T06:30:12;-6.00;99.90
12893;DHT22;6514;48.606;9.222;2024-01-11T06:32:38;-5.90;99.90
12893;DHT22;6514;48.606;9.222;2024-01-11T06:35:06;-5.90;99.90
12893;DHT22;6514;48.606;9.222;2024-01-11T06:37:33;-5.90;99.90
12893;DHT22;6514;48.606;9.222;2024-01-11T06:40:00;-6.00;99.90
12893;DHT22;6514;48.606;9.222;2024-01-11T06:42:30;-5.50;99.90
12893;DHT22;6514;48.606;9.222;2024-01-11T06:44:57;-6.00;99.90
12893;DHT22;6514;48.606;9.222;2024-01-11T06:47:24;-6.10;99.90
12893;DHT22;6514;48.606;9.222;2024-01-11T06:49:51;-6.20;99.90
12893;DHT22;6514;48.606;9.222;2024-01-11T06:52:18;-6.30;99.90
12893;DHT22;6514;48.606;9.222;2024-01-11T06:54:45;-6.40;99.90
12893;DHT22;6514;48.606;9.222;2024-01-11T06:57:12;-6.50;99.90
12893;DHT22;6514;48.606;9.222;2024-01-11T06:59:40;-6.50;99.90
12893;DHT22;6514;48.606;9.222;2024-01-11T07:02:07;-6.60;99.90
12893;DHT22;6514;48.606;9.222;2024-01-11T07:04:34;-6.60;99.90
12893;DHT22;6514;48.606;9.222;2024-01-11T07:07:01;-6.70;99.90
12893;DHT22;6514;48.606;9.222;2024-01-11T07:09:30;-6.80;99.90
12893;DHT22;6514;48.606;9.222;2024-01-11T07:11:56;-6.80;99.90
12893;DHT22;6514;48.606;9.222;2024-01-11T07:14:23;-6.80;99.90
12893;DHT22;6514;48.606;9.222;2024-01-11T07:16:51;-6.80;99.90
12893;DHT22;6514;48.606;9.222;2024-01-11T07:19:18;-6.80;99.90
12893;DHT22;6514;48.606;9.222;2024-01-11T07:21:45;-6.90;99.90
12893;DHT22;6514;48.606;9.222;2024-01-11T07:24:12;-6.80;99.90
12893;DHT22;6514;48.606;9.222;2024-01-11T07:26:39;-6.80;99.90
12893;DHT22;6514;48.606;9.222;2024-01-11T07:29:06;-6.90;99.90
12893;DHT22;6514;48.606;9.222;2024-01-11T07:31:33;-6.80;99.90
12893;DHT22;6514;48.606;9.222;2024-01-11T07:34:04;-6.80;99.90
12893;DHT22;6514;48.606;9.222;2024-01-11T07:36:31;-6.70;99.90
12893;DHT22;6514;48.606;9.222;2024-01-11T07:38:57;-6.70;99.90
12893;DHT22;6514;48.606;9.222;2024-01-11T07:41:25;-6.60;99.90
12893;DHT22;6514;48.606;9.222;2024-01-11T07:43:52;-6.50;99.90
12893;DHT22;6514;48.606;9.222;2024-01-11T07:46:24;-6.40;99.90
12893;DHT22;6514;48.606;9.222;2024-01-11T07:48:50;-6.40;99.90
12893;DHT22;6514;48.606;9.222;2024-01-11T07:51:19;-6.20;99.90
12893;DHT22;6514;48.606;9.222;2024-01-11T07:53:46;-6.10;99.90
12893;DHT22;6514;48.606;9.222;2024-01-11T07:56:12;-6.00;99.90
12893;DHT22;6514;48.606;9.222;2024-01-11T07:58:40;-5.90;99.90
12893;DHT22;6514;48.606;9.222;2024-01-11T08:01:09;-5.70;99.90
12893;DHT22;6514;48.606;9.222;2024-01-11T08:03:36;-5.60;99.90
12893;DHT22;6514;48.606;9.222;2024-01-11T08:06:03;-5.40;99.90
12893;DHT22;6514;48.606;9.222;2024-01-11T08:08:34;-5.10;99.90
12893;DHT22;6514;48.606;9.222;2024-01-11T08:11:02;-4.90;99.90
12893;DHT22;6514;48.606;9.222;2024-01-11T08:13:28;-4.70;99.90
12893;DHT22;6514;48.606;9.222;2024-01-11T08:15:57;-4.50;99.90
12893;DHT22;6514;48.606;9.222;2024-01-11T08:18:24;-4.40;99.90
12893;DHT22;6514;48.606;9.222;2024-01-11T08:20:52;-4.30;99.90
12893;DHT22;6514;48.606;9.222;2024-01-11T08:23:19;-4.10;99.90
12893;DHT22;6514;48.606;9.222;2024-01-11T08:25:47;-3.90;99.90
12893;DHT22;6514;48.606;9.222;2024-01-11T08:28:14;-3.70;99.90
12893;DHT22;6514;48.606;9.222;2024-01-11T08:30:41;-3.60;99.90
12893;DHT22;6514;48.606;9.222;2024-01-11T08:33:09;-3.50;99.90
12893;DHT22;6514;48.606;9.222;2024-01-11T08:35:35;-3.40;99.90
12893;DHT22;6514;48.606;9.222;2024-01-11T08:38:05;-3.30;99.90
12893;DHT22;6514;48.606;9.222;2024-01-11T08:40:32;-3.20;99.90
12893;DHT22;6514;48.606;9.222;2024-01-11T08:43:01;-3.00;99.90
12893;DHT22;6514;48.606;9.222;2024-01-11T08:45:28;-2.70;99.90
12893;DHT22;6514;48.606;9.222;2024-01-11T08:47:56;-2.40;99.90
12893;DHT22;6514;48.606;9.222;2024-01-11T08:50:23;-2.20;99.90
12893;DHT22;6514;48.606;9.222;2024-01-11T08:52:50;-2.00;99.90
12893;DHT22;6514;48.606;9.222;2024-01-11T08:55:17;-1.90;99.90
12893;DHT22;6514;48.606;9.222;2024-01-11T08:57:44;-1.70;99.90
12893;DHT22;6514;48.606;9.222;2024-01-11T09:00:14;-1.30;99.90
12893;DHT22;6514;48.606;9.222;2024-01-11T09:02:43;-1.10;99.90
12893;DHT22;6514;48.606;9.222;2024-01-11T09:05:10;-0.60;99.90
12893;DHT22;6514;48.606;9.222;2024-01-11T09:07:36;0.00;99.90
12893;DHT22;6514;48.606;9.222;2024-01-11T09:10:04;0.50;99.90
12893;DHT22;6514;48.606;9.222;2024-01-11T09:12:31;0.80;99.90
12893;DHT22;6514;48.606;9.222;2024-01-11T09:14:59;3.00;99.90
12893;DHT22;6514;48.606;9.222;2024-01-11T09:17:27;1.80;99.90
12893;DHT22;6514;48.606;9.222;2024-01-11T09:19:54;2.20;99.90
12893;DHT22;6514;48.606;9.222;2024-01-11T09:22:21;2.40;99.90
12893;DHT22;6514;48.606;9.222;2024-01-11T09:24:48;2.50;99.90
12893;DHT22;6514;48.606;9.222;2024-01-11T09:27:15;2.50;99.90
12893;DHT22;6514;48.606;9.222;2024-01-11T09:29:43;2.60;99.90
12893;DHT22;6514;48.606;9.222;2024-01-11T09:32:10;2.40;99.90
12893;DHT22;6514;48.606;9.222;2024-01-11T09:34:38;2.00;99.90
12893;DHT22;6514;48.606;9.222;2024-01-11T09:37:05;1.80;99.90
12893;DHT22;6514;48.606;9.222;2024-01-11T09:39:32;1.70;99.90
12893;DHT22;6514;48.606;9.222;2024-01-11T09:42:07;1.60;99.90
12893;DHT22;6514;48.606;9.222;2024-01-11T09:44:36;1.60;99.90
12893;DHT22;6514;48.606;9.222;2024-01-11T09:47:05;1.80;99.90
12893;DHT22;6514;48.606;9.222;2024-01-11T09:49:33;1.90;99.90
12893;DHT22;6514;48.606;9.222;2024-01-11T09:52:05;1.80;99.90
12893;DHT22;6514;48.606;9.222;2024-01-11T09:54:34;1.70;99.90
12893;DHT22;6514;48.606;9.222;2024-01-11T09:57:03;1.60;99.90
12893;DHT22;6514;48.606;9.222;2024-01-11T09:59:31;1.70;99.90
12893;DHT22;6514;48.606;9.222;2024-01-11T10:01:59;1.40;99.90
12893;DHT22;6514;48.606;9.222;2024-01-11T10:04:28;1.40;99.90
12893;DHT22;6514;48.606;9.222;2024-01-11T10:06:55;1.60;99.90
12893;DHT22;6514;48.606;9.222;2024-01-11T10:09:24;1.70;99.90
12893;DHT22;6514;48.606;9.222;2024-01-11T10:11:52;1.70;99.90
12893;DHT22;6514;48.606;9.222;2024-01-11T10:14:20;1.90;99.90
12893;DHT22;6514;48.606;9.222;2024-01-11T10:16:47;1.90;99.90
12893;DHT22;6514;48.606;9.222;2024-01-11T10:19:14;1.80;99.90
12893;DHT22;6514;48.606;9.222;2024-01-11T10:21:42;1.70;99.90
12893;DHT22;6514;48.606;9.222;2024-01-11T10:24:08;1.60;99.90
12893;DHT22;6514;48.606;9.222;2024-01-11T10:26:37;1.60;99.90
12893;DHT22;6514;48.606;9.222;2024-01-11T10:29:06;1.60;99.90
12893;DHT22;6514;48.606;9.222;2024-01-11T10:31:36;1.40;99.90
12893;DHT22;6514;48.606;9.222;2024-01-11T10:34:04;1.40;99.90
12893;DHT22;6514;48.606;9.222;2024-01-11T10:36:32;1.60;99.90
12893;DHT22;6514;48.606;9.222;2024-01-11T10:39:01;1.80;99.90
12893;DHT22;6514;48.606;9.222;2024-01-11T10:41:32;2.00;99.90
12893;DHT22;6514;48.606;9.222;2024-01-11T10:44:06;2.20;99.90
12893;DHT22;6514;48.606;9.222;2024-01-11T10:46:38;2.40;99.90
12893;DHT22;6514;48.606;9.222;2024-01-11T10:49:06;2.40;99.90
12893;DHT22;6514;48.606;9.222;2024-01-11T10:51:34;2.30;99.90
12893;DHT22;6514;48.606;9.222;2024-01-11T10:54:01;2.20;99.90
12893;DHT22;6514;48.606;9.222;2024-01-11T10:56:29;2.20;99.90
12893;DHT22;6514;48.606;9.222;2024-01-11T10:58:57;2.30;99.90
12893;DHT22;6514;48.606;9.222;2024-01-11T11:01:26;2.30;99.90
12893;DHT22;6514;48.606;9.222;2024-01-11T11:03:54;2.20;99.90
12893;DHT22;6514;48.606;9.222;2024-01-11T11:06:22;2.20;99.90
12893;DHT22;6514;48.606;9.222;2024-01-11T11:08:50;2.30;99.90
12893;DHT22;6514;48.606;9.222;2024-01-11T11:11:19;2.20;99.90
12893;DHT22;6514;48.606;9.222;2024-01-11T11:13:47;2.20;99.90
12893;DHT22;6514;48.606;9.222;2024-01-11T11:16:17;2.30;99.90
12893;DHT22;6514;48.606;9.222;2024-01-11T11:18:46;2.20;99.90
12893;DHT22;6514;48.606;9.222;2024-01-11T11:21:15;2.20;99.90
12893;DHT22;6514;48.606;9.222;2024-01-11T11:23:42;2.10;99.90
12893;DHT22;6514;48.606;9.222;2024-01-11T11:26:15;2.10;99.90
12893;DHT22;6514;48.606;9.222;2024-01-11T11:28:42;2.20;99.90
12893;DHT22;6514;48.606;9.222;2024-01-11T11:31:11;2.20;99.90
12893;DHT22;6514;48.606;9.222;2024-01-11T11:33:38;2.10;99.90
12893;DHT22;6514;48.606;9.222;2024-01-11T11:36:12;2.00;99.90
12893;DHT22;6514;48.606;9.222;2024-01-11T11:38:39;1.90;99.90
12893;DHT22;6514;48.606;9.222;2024-01-11T11:41:07;1.90;99.90
12893;DHT22;6514;48.606;9.222;2024-01-11T11:43:33;1.80;99.90
12893;DHT22;6514;48.606;9.222;2024-01-11T11:46:02;1.80;99.90
12893;DHT22;6514;48.606;9.222;2024-01-11T11:48:51;1.70;99.90
12893;DHT22;6514;48.606;9.222;2024-01-11T11:51:21;1.70;99.90
12893;DHT22;6514;48.606;9.222;2024-01-11T11:53:50;1.80;99.90
12893;DHT22;6514;48.606;9.222;2024-01-11T11:56:18;1.90;99.90
12893;DHT22;6514;48.606;9.222;2024-01-11T11:58:46;1.90;99.90
12893;DHT22;6514;48.606;9.222;2024-01-11T12:01:14;1.80;99.90
12893;DHT22;6514;48.606;9.222;2024-01-11T12:03:43;1.80;99.90
12893;DHT22;6514;48.606;9.222;2024-01-11T12:06:16;1.80;99.90
12893;DHT22;6514;48.606;9.222;2024-01-11T12:08:45;1.60;99.90
12893;DHT22;6514;48.606;9.222;2024-01-11T12:11:17;1.60;99.90
12893;DHT22;6514;48.606;9.222;2024-01-11T12:13:44;1.60;99.90
12893;DHT22;6514;48.606;9.222;2024-01-11T12:16:11;1.70;99.90
12893;DHT22;6514;48.606;9.222;2024-01-11T12:18:38;1.80;99.90
12893;DHT22;6514;48.606;9.222;2024-01-11T12:21:05;1.80;99.90
12893;DHT22;6514;48.606;9.222;2024-01-11T12:23:33;2.00;99.90
12893;DHT22;6514;48.606;9.222;2024-01-11T12:26:02;2.00;99.90
12893;DHT22;6514;48.606;9.222;2024-01-11T12:28:31;1.90;99.90
12893;DHT22;6514;48.606;9.222;2024-01-11T12:30:58;2.00;99.90
12893;DHT22;6514;48.606;9.222;2024-01-11T12:33:26;2.00;99.90
12893;DHT22;6514;48.606;9.222;2024-01-11T12:35:53;2.00;99.90
12893;DHT22;6514;48.606;9.222;2024-01-11T12:38:20;2.10;99.90
12893;DHT22;6514;48.606;9.222;2024-01-11T12:40:48;2.20;99.90
12893;DHT22;6514;48.606;9.222;2024-01-11T12:43:16;2.20;99.90
12893;DHT22;6514;48.606;9.222;2024-01-11T12:45:44;2.10;99.90
12893;DHT22;6514;48.606;9.222;2024-01-11T12:48:11;2.10;99.90
12893;DHT22;6514;48.606;9.222;2024-01-11T12:50:40;2.20;99.90
12893;DHT22;6514;48.606;9.222;2024-01-11T12:53:08;2.10;99.90
12893;DHT22;6514;48.606;9.222;2024-01-11T12:55:35;2.10;99.90
12893;DHT22;6514;48.606;9.222;2024-01-11T12:58:06;2.10;99.90
12893;DHT22;6514;48.606;9.222;2024-01-11T13:00:36;2.10;99.90
12893;DHT22;6514;48.606;9.222;2024-01-11T13:03:04;2.10;99.90
12893;DHT22;6514;48.606;9.222;2024-01-11T13:05:31;2.10;99.90
12893;DHT22;6514;48.606;9.222;2024-01-11T13:08:01;2.10;99.90
12893;DHT22;6514;48.606;9.222;2024-01-11T13:10:29;2.10;99.90
12893;DHT22;6514;48.606;9.222;2024-01-11T13:12:58;2.10;99.90
12893;DHT22;6514;48.606;9.222;2024-01-11T13:15:25;2.00;99.90
12893;DHT22;6514;48.606;9.222;2024-01-11T13:17:55;2.00;99.90
12893;DHT22;6514;48.606;9.222;2024-01-11T13:20:22;2.10;99.90
12893;DHT22;6514;48.606;9.222;2024-01-11T13:25:39;2.10;99.90
12893;DHT22;6514;48.606;9.222;2024-01-11T13:28:05;2.00;99.90
12893;DHT22;6514;48.606;9.222;2024-01-11T13:30:32;2.00;99.90
12893;DHT22;6514;48.606;9.222;2024-01-11T13:33:00;2.00;99.90
12893;DHT22;6514;48.606;9.222;2024-01-11T13:35:27;2.00;99.90
12893;DHT22;6514;48.606;9.222;2024-01-11T13:37:53;1.90;99.90
12893;DHT22;6514;48.606;9.222;2024-01-11T13:40:21;1.90;99.90
12893;DHT22;6514;48.606;9.222;2024-01-11T13:42:48;1.90;99.90
12893;DHT22;6514;48.606;9.222;2024-01-11T13:45:14;2.00;99.90
12893;DHT22;6514;48.606;9.222;2024-01-11T13:47:41;1.90;99.90
12893;DHT22;6514;48.606;9.222;2024-01-11T13:50:09;1.90;99.90
12893;DHT22;6514;48.606;9.222;2024-01-11T13:52:36;1.90;99.90
12893;DHT22;6514;48.606;9.222;2024-01-11T13:55:04;1.80;99.90
12893;DHT22;6514;48.606;9.222;2024-01-11T13:57:30;1.80;99.90
12893;DHT22;6514;48.606;9.222;2024-01-11T13:59:59;1.60;99.90
12893;DHT22;6514;48.606;9.222;2024-01-11T14:02:26;1.60;99.90
12893;DHT22;6514;48.606;9.222;2024-01-11T14:04:52;1.60;99.90
12893;DHT22;6514;48.606;9.222;2024-01-11T14:07:21;1.60;99.90
12893;DHT22;6514;48.606;9.222;2024-01-11T14:09:48;1.60;99.90
12893;DHT22;6514;48.606;9.222;2024-01-11T14:12:15;1.60;99.90
12893;DHT22;6514;48.606;9.222;2024-01-11T14:14:42;1.50;99.90
12893;DHT22;6514;48.606;9.222;2024-01-11T14:17:09;1.50;99.90
12893;DHT22;6514;48.606;9.222;2024-01-11T14:19:36;1.40;99.90
12893;DHT22;6514;48.606;9.222;2024-01-11T14:22:03;1.30;99.90
12893;DHT22;6514;48.606;9.222;2024-01-11T14:24:31;1.30;99.90
12893;DHT22;6514;48.606;9.222;2024-01-11T14:26:59;1.20;99.90
12893;DHT22;6514;48.606;9.222;2024-01-11T14:29:27;1.20;99.90
12893;DHT22;6514;48.606;9.222;2024-01-11T14:31:54;1.10;99.90
12893;DHT22;6514;48.606;9.222;2024-01-11T14:34:21;1.10;99.90
12893;DHT22;6514;48.606;9.222;2024-01-11T14:36:51;1.00;99.90
12893;DHT22;6514;48.606;9.222;2024-01-11T14:39:18;1.00;99.90
12893;DHT22;6514;48.606;9.222;2024-01-11T14:41:46;0.90;99.90
12893;DHT22;6514;48.606;9.222;2024-01-11T14:44:13;0.80;99.90
12893;DHT22;6514;48.606;9.222;2024-01-11T14:46:40;0.80;99.90
12893;DHT22;6514;48.606;9.222;2024-01-11T14:49:07;0.80;99.90
12893;DHT22;6514;48.606;9.222;2024-01-11T14:51:34;0.70;99.90
12893;DHT22;6514;48.606;9.222;2024-01-11T14:54:03;0.50;99.90
12893;DHT22;6514;48.606;9.222;2024-01-11T14:56:30;0.50;99.90
12893;DHT22;6514;48.606;9.222;2024-01-11T14:58:58;0.40;99.90
12893;DHT22;6514;48.606;9.222;2024-01-11T15:01:25;0.40;99.90
12893;DHT22;6514;48.606;9.222;2024-01-11T15:03:52;0.30;99.90
12893;DHT22;6514;48.606;9.222;2024-01-11T15:06:18;0.20;99.90
12893;DHT22;6514;48.606;9.222;2024-01-11T15:08:45;0.10;99.90
12893;DHT22;6514;48.606;9.222;2024-01-11T15:11:12;0.00;99.90
12893;DHT22;6514;48.606;9.222;2024-01-11T15:13:39;0.00;99.90
12893;DHT22;6514;48.606;9.222;2024-01-11T15:16:07;-0.10;99.90
12893;DHT22;6514;48.606;9.222;2024-01-11T15:18:34;-0.20;99.90
12893;DHT22;6514;48.606;9.222;2024-01-11T15:21:01;-0.20;99.90
12893;DHT22;6514;48.606;9.222;2024-01-11T15:23:28;-0.20;99.90
12893;DHT22;6514;48.606;9.222;2024-01-11T15:25:55;-0.40;99.90
12893;DHT22;6514;48.606;9.222;2024-01-11T15:28:22;-0.50;99.90
12893;DHT22;6514;48.606;9.222;2024-01-11T15:30:48;-0.70;99.90
12893;DHT22;6514;48.606;9.222;2024-01-11T15:33:16;-0.80;99.90
12893;DHT22;6514;48.606;9.222;2024-01-11T15:35:43;-0.90;99.90
12893;DHT22;6514;48.606;9.222;2024-01-11T15:38:10;-1.00;99.90
12893;DHT22;6514;48.606;9.222;2024-01-11T15:40:37;-1.20;99.90
12893;DHT22;6514;48.606;9.222;2024-01-11T15:43:04;-1.20;99.90
12893;DHT22;6514;48.606;9.222;2024-01-11T15:45:32;-1.40;99.90
12893;DHT22;6514;48.606;9.222;2024-01-11T15:47:59;-1.60;99.90
12893;DHT22;6514;48.606;9.222;2024-01-11T15:50:27;-1.70;99.90
12893;DHT22;6514;48.606;9.222;2024-01-11T15:52:54;-1.80;99.90
12893;DHT22;6514;48.606;9.222;2024-01-11T15:55:21;-2.00;99.90
12893;DHT22;6514;48.606;9.222;2024-01-11T15:57:47;-2.10;99.90